This is the latest recevied weather packets stored in our database for station/object OE9GTV. If no packets are shown the sender has not sent any weather packets the latest 10 day(s).
| Time | Temp. | Humidity | Pressure | Rain* | Wind** | Luminosity | Snow |
|---|---|---|---|---|---|---|---|
| 1777755672 | 17.78° C | 47% | 1014 hPa | 0 mm | - | 0 W/m² | - |
| 1777755072 | 17.22° C | 48% | 1014 hPa | 0 mm | - | 0 W/m² | - |
| 1777754472 | 16.67° C | 50% | 1014.1 hPa | 0 mm | - | 0 W/m² | - |
| 1777753871 | 16.67° C | 51% | 1014.2 hPa | 0 mm | - | 0 W/m² | - |
| 1777753271 | 16.11° C | 52% | 1014.2 hPa | 0 mm | - | 0 W/m² | - |
| 1777752672 | 16.11° C | 53% | 1014.2 hPa | 0 mm | - | 0 W/m² | - |
| 1777752071 | 16.11° C | 53% | 1014.2 hPa | 0 mm | - | 0 W/m² | - |
| 1777751472 | 16.67° C | 52% | 1014.3 hPa | 0 mm | - | 0 W/m² | - |
| 1777750871 | 16.67° C | 51% | 1014.2 hPa | 0 mm | - | 0 W/m² | - |
| 1777750271 | 17.22° C | 51% | 1014.1 hPa | 0 mm | - | 0 W/m² | - |
| 1777749671 | 17.78° C | 50% | 1014 hPa | 0 mm | - | 0 W/m² | - |
| 1777749071 | 18.33° C | 48% | 1014 hPa | 0 mm | - | 0 W/m² | - |
| 1777748471 | 18.89° C | 46% | 1013.8 hPa | 0 mm | - | 0 W/m² | - |
| 1777747871 | 19.44° C | 45% | 1013.7 hPa | 0 mm | - | 0 W/m² | - |
| 1777747271 | 20° C | 43% | 1013.7 hPa | 0 mm | - | 0 W/m² | - |
| 1777746676 | 20.56° C | 42% | 1013.6 hPa | 0 mm | - | 0 W/m² | - |
| 1777746076 | 21.67° C | 40% | 1013.5 hPa | 0 mm | - | 0 W/m² | - |
| 1777745476 | 22.22° C | 37% | 1013.4 hPa | 0 mm | - | 0 W/m² | - |
| 1777744876 | 22.78° C | 35% | 1013.4 hPa | 0 mm | - | 0 W/m² | - |
| 1777744275 | 23.33° C | 33% | 1013.4 hPa | 0 mm | - | 0 W/m² | - |
| 1777743675 | 23.89° C | 31% | 1013.5 hPa | 0 mm | - | 0 W/m² | - |
| 1777743075 | 24.44° C | 30% | 1013.5 hPa | 0 mm | - | 0 W/m² | - |
| 1777742475 | 25° C | 29% | 1013.5 hPa | 0 mm | - | 0 W/m² | - |
| 1777741876 | 25.56° C | 27% | 1013.6 hPa | 0 mm | - | 0 W/m² | - |
| 1777741275 | 25.56° C | 28% | 1013.6 hPa | 0 mm | - | 0 W/m² | - |
* Rain latest hour (hover to see other rain measurements)
** Current wind speed in m/s (hover to see current wind gust speed)